Time;durP1;ratioP1;P1;durP2;ratioP2;P2;SDS_P1;SDS_P2;PMS_P1;PMS_P2;Temp;Humidity;BMP_temperature;BMP_pressure;BME280_temperature;BME280_humidity;BME280_pressure;Samples;Min_cycle;Max_cycle;Signal;HPM_P1;HPM_P2
2021/03/17 00:02:37;;;;;;;20.40;12.57;;;;;;;4.82;69.63;100298.31;4855157;28;96795;-73
2021/03/17 00:05:25;;;;;;;21.30;12.23;;;;;;;4.78;69.76;100291.44;4874647;28;97174;-73
2021/03/17 00:08:10;;;;;;;20.67;11.23;;;;;;;4.82;69.71;100296.56;4858885;28;97117;-73
2021/03/17 00:10:55;;;;;;;24.67;12.07;;;;;;;4.87;69.88;100284.38;4864873;28;96721;-73
2021/03/17 00:13:39;;;;;;;19.40;11.80;;;;;;;4.82;69.92;100286.16;4875605;28;96926;-74
2021/03/17 00:16:23;;;;;;;19.73;11.20;;;;;;;4.89;69.63;100281.75;4858564;28;97173;-73
2021/03/17 00:19:07;;;;;;;19.87;11.00;;;;;;;4.87;69.78;100286.97;4875477;28;97112;-74
2021/03/17 00:21:51;;;;;;;17.13;10.83;;;;;;;4.81;70.09;100284.44;4889668;28;97226;-73
2021/03/17 00:24:35;;;;;;;15.57;11.07;;;;;;;4.91;69.60;100282.59;4889568;28;96953;-75
2021/03/17 00:27:20;;;;;;;20.67;11.67;;;;;;;4.98;69.37;100284.25;4874559;28;97154;-74
2021/03/17 00:30:08;;;;;;;20.47;11.10;;;;;;;5.04;69.17;100278.97;4881474;28;97004;-74
2021/03/17 00:32:52;;;;;;;17.70;10.83;;;;;;;5.03;69.08;100279.84;4877469;28;96756;-73
2021/03/17 00:35:36;;;;;;;16.80;10.83;;;;;;;4.92;69.66;100277.38;4877263;28;97009;-74
2021/03/17 00:38:20;;;;;;;19.13;11.07;;;;;;;4.90;69.43;100280.88;4868833;28;97198;-73
2021/03/17 00:41:04;;;;;;;17.10;10.83;;;;;;;4.83;69.97;100280.09;4858634;28;97111;-75
2021/03/17 00:43:49;;;;;;;17.70;11.23;;;;;;;4.81;69.88;100270.59;4875117;28;96950;-73
2021/03/17 00:46:32;;;;;;;19.03;11.13;;;;;;;4.81;70.21;100279.25;4871655;28;97128;-73
2021/03/17 00:49:06;;;;;;;19.00;11.77;;;;;;;4.76;70.31;100273.22;4844403;28;101553;-74
2021/03/17 00:51:33;;;;;;;14.67;10.00;;;;;;;4.79;70.12;100273.19;4873363;28;98459;-74
2021/03/17 00:54:17;;;;;;;17.47;10.90;;;;;;;4.76;70.00;100281.88;4874334;28;96846;-77
2021/03/17 00:56:50;;;;;;;20.10;11.30;;;;;;;4.76;69.95;100271.47;4865295;28;97153;-73
2021/03/17 00:59:17;;;;;;;16.53;10.50;;;;;;;4.72;70.37;100271.53;4857564;28;98054;-78
2021/03/17 01:01:42;;;;;;;17.43;10.20;;;;;;;4.75;70.17;100268.91;4857851;28;101927;-76
2021/03/17 01:04:08;;;;;;;18.60;10.93;;;;;;;4.81;70.23;100265.38;4848814;28;96669;-73
2021/03/17 01:06:34;;;;;;;19.23;11.80;;;;;;;4.80;70.06;100264.53;4877171;28;97658;-73
2021/03/17 01:08:59;;;;;;;16.27;10.43;;;;;;;4.70;70.56;100274.16;4861403;28;101776;-73
2021/03/17 01:11:25;;;;;;;17.33;10.37;;;;;;;4.74;70.33;100270.66;4875777;28;101007;-73
2021/03/17 01:13:51;;;;;;;16.33;10.20;;;;;;;4.76;70.28;100276.69;4876371;28;98027;-73
2021/03/17 01:16:17;;;;;;;15.10;9.33;;;;;;;4.73;70.53;100274.09;4891326;28;97201;-77
2021/03/17 01:18:42;;;;;;;14.27;9.57;;;;;;;4.71;70.39;100267.19;4860983;28;101440;-73
2021/03/17 01:21:08;;;;;;;13.23;9.57;;;;;;;4.73;70.31;100275.84;4877092;28;97715;-74
2021/03/17 01:23:34;;;;;;;11.43;8.93;;;;;;;4.74;70.08;100278.44;4876294;28;97385;-73
2021/03/17 01:25:59;;;;;;;11.37;8.63;;;;;;;4.72;70.05;100267.19;4877066;28;97023;-73
2021/03/17 01:28:25;;;;;;;10.93;8.47;;;;;;;4.70;70.64;100268.09;4891768;28;100687;-74
2021/03/17 01:30:55;;;;;;;12.67;9.77;;;;;;;4.71;69.96;100270.69;4864800;28;101036;-73
2021/03/17 01:33:24;;;;;;;12.70;9.43;;;;;;;4.69;70.02;100272.44;4872802;28;97089;-74
2021/03/17 01:35:50;;;;;;;12.13;8.93;;;;;;;4.69;70.07;100266.38;4857843;28;97307;-74
2021/03/17 01:38:16;;;;;;;12.67;8.87;;;;;;;4.71;69.84;100269.78;4863652;28;101077;-79
2021/03/17 01:40:43;;;;;;;12.40;9.07;;;;;;;4.67;70.47;100270.72;4876352;28;98535;-74
2021/03/17 01:43:09;;;;;;;13.73;9.63;;;;;;;4.66;70.42;100272.47;4876746;28;97204;-73
2021/03/17 01:45:35;;;;;;;13.00;9.80;;;;;;;4.61;70.32;100270.78;4860117;28;97700;-76
2021/03/17 01:48:00;;;;;;;15.77;10.10;;;;;;;4.67;70.52;100273.31;4893590;28;97381;-73
2021/03/17 01:50:28;;;;;;;13.93;9.80;;;;;;;4.69;70.15;100269.84;4875214;28;99930;-74
2021/03/17 01:52:55;;;;;;;13.60;9.60;;;;;;;4.69;70.27;100269.84;4892602;28;97304;-73
2021/03/17 01:55:22;;;;;;;16.30;10.13;;;;;;;4.69;70.01;100268.97;4865546;28;96851;-74
2021/03/17 01:57:48;;;;;;;14.70;10.17;;;;;;;4.68;70.17;100269.84;4873370;28;98423;-73
2021/03/17 02:00:15;;;;;;;14.47;10.07;;;;;;;4.71;70.04;100275.88;4871440;28;98033;-73
2021/03/17 02:02:49;;;;;;;18.30;11.73;;;;;;;4.65;70.13;100269.88;4875072;28;96604;-73
2021/03/17 02:05:16;;;;;;;15.30;9.97;;;;;;;4.66;70.38;100264.66;4860669;28;98174;-75
2021/03/17 02:07:43;;;;;;;14.17;10.60;;;;;;;4.64;70.14;100263.81;4860002;28;101689;-75
2021/03/17 02:10:11;;;;;;;17.80;10.63;;;;;;;4.68;70.35;100270.72;4892102;28;98535;-73
2021/03/17 02:12:59;;;;;;;14.50;11.20;;;;;;;4.67;70.25;100263.78;4875246;28;96738;-73
2021/03/17 02:15:48;;;;;;;14.60;9.50;;;;;;;4.58;70.23;100266.47;4872781;28;97625;-73
2021/03/17 02:18:42;;;;;;;13.83;9.23;;;;;;;4.57;70.56;100263.88;4857076;28;101424;-75
2021/03/17 02:21:17;;;;;;;15.50;9.30;;;;;;;4.50;70.38;100265.69;4856851;28;101223;-75
2021/03/17 02:23:59;;;;;;;15.03;9.33;;;;;;;4.54;70.52;100267.41;4872492;28;96763;-75
2021/03/17 02:26:43;;;;;;;;;;;;;;;4.54;70.03;100265.66;4872407;28;97429;-75
2021/03/17 02:30:07;;;;;;;14.90;9.30;;;;;;;4.57;69.92;100263.88;4872585;28;97885;-75
2021/03/17 02:32:54;;;;;;;18.13;10.17;;;;;;;4.57;69.99;100262.16;4852236;28;98027;-75
2021/03/17 02:35:21;;;;;;;16.83;9.97;;;;;;;4.63;69.98;100262.09;4820962;29;97379;-78
2021/03/17 02:37:49;;;;;;;18.33;10.33;;;;;;;4.57;70.16;100258.69;4845819;28;96943;-73
2021/03/17 02:40:33;;;;;;;16.47;9.97;;;;;;;4.50;69.84;100253.53;4847284;28;98033;-73
2021/03/17 02:43:04;;;;;;;15.70;9.37;;;;;;;4.50;70.33;100265.69;4861996;28;101668;-72
2021/03/17 02:45:32;;;;;;;16.98;9.88;;;;;;;4.51;69.66;100268.28;4859463;28;97354;-73
2021/03/17 02:48:17;;;;;;;14.93;8.50;;;;;;;4.54;69.59;100259.59;4876281;28;97227;-73
2021/03/17 02:50:46;;;;;;;14.23;8.60;;;;;;;4.59;68.88;100265.59;4859063;28;101999;-73
2021/03/17 02:53:13;;;;;;;15.80;9.13;;;;;;;4.62;69.50;100267.31;4875501;28;99231;-74
2021/03/17 02:55:44;;;;;;;15.10;9.07;;;;;;;4.62;69.43;100262.97;4858219;28;97604;-73
2021/03/17 02:58:10;;;;;;;14.88;8.82;;;;;;;4.57;69.45;100269.97;4856527;28;96904;-74
2021/03/17 03:00:36;;;;;;;14.20;9.33;;;;;;;4.52;69.54;100264.81;4855283;28;101570;-74
2021/03/17 03:03:02;;;;;;;13.87;9.50;;;;;;;4.57;69.40;100263.88;4872440;28;101305;-73
2021/03/17 03:05:28;;;;;;;14.80;9.67;;;;;;;4.60;69.38;100267.34;4855805;28;97328;-73
2021/03/17 03:07:55;;;;;;;15.87;9.67;;;;;;;4.56;69.87;100263.03;4853483;29;97519;-73
2021/03/17 03:10:23;;;;;;;15.70;9.97;;;;;;;4.52;69.46;100267.41;4853939;28;101361;-78
2021/03/17 03:12:49;;;;;;;17.07;9.60;;;;;;;4.47;69.81;100260.53;4900048;28;98001;-73
2021/03/17 03:15:19;;;;;;;12.23;9.17;;;;;;;4.50;69.72;100261.34;4859511;28;97241;-73
2021/03/17 03:17:46;;;;;;;12.77;9.20;;;;;;;4.39;69.74;100264.94;4890594;28;96886;-73
2021/03/17 03:20:15;;;;;;;17.40;10.10;;;;;;;4.38;70.37;100268.41;4874625;28;100598;-73
2021/03/17 03:22:42;;;;;;;17.57;12.23;;;;;;;4.25;70.24;100273.75;4874496;28;98258;-73
2021/03/17 03:25:08;;;;;;;18.67;12.60;;;;;;;4.20;70.59;100270.31;4859475;28;97402;-73
2021/03/17 03:27:34;;;;;;;18.93;12.57;;;;;;;4.21;71.02;100271.16;4874413;28;97155;-75
2021/03/17 03:30:07;;;;;;;18.83;12.43;;;;;;;4.21;70.62;100273.75;4891090;28;98533;-74
2021/03/17 03:32:33;;;;;;;16.93;10.37;;;;;;;4.26;70.46;100272.00;4874045;28;101033;-75
2021/03/17 03:34:58;;;;;;;11.97;9.53;;;;;;;4.13;71.03;100275.56;4875144;28;96651;-75
2021/03/17 03:37:24;;;;;;;13.20;9.10;;;;;;;4.23;70.68;100278.06;4874064;28;97339;-75
2021/03/17 03:39:50;;;;;;;13.00;8.83;;;;;;;4.15;70.80;100273.81;4874762;28;100904;-73
2021/03/17 03:42:15;;;;;;;12.97;9.03;;;;;;;4.14;71.28;100277.31;4858673;28;101181;-75
2021/03/17 03:44:41;;;;;;;14.40;10.10;;;;;;;4.13;70.74;100284.25;4873675;28;97767;-73
2021/03/17 03:47:07;;;;;;;13.23;8.67;;;;;;;4.07;71.30;100281.66;4875313;28;96799;-73
2021/03/17 03:49:32;;;;;;;12.03;9.13;;;;;;;4.16;70.73;100279.03;4858390;28;101288;-73
2021/03/17 03:52:11;;;;;;;14.20;9.67;;;;;;;4.12;71.19;100279.03;4890244;28;99157;-73
2021/03/17 03:54:49;;;;;;;14.40;9.87;;;;;;;4.07;71.04;100277.34;4858388;28;96950;-73
2021/03/17 03:57:22;;;;;;;14.93;9.87;;;;;;;4.10;71.39;100286.84;4837310;28;97238;-73
2021/03/17 03:59:48;;;;;;;17.40;10.73;;;;;;;4.11;71.12;100282.53;4855742;28;100808;-73
2021/03/17 04:02:25;;;;;;;16.37;10.23;;;;;;;4.09;71.40;100285.97;4855709;28;101561;-73
2021/03/17 04:04:51;;;;;;;14.33;9.80;;;;;;;4.17;70.97;100279.88;4872287;28;97032;-73
2021/03/17 04:07:17;;;;;;;14.63;9.97;;;;;;;4.20;71.11;100282.44;4855745;28;96975;-73
2021/03/17 04:09:45;;;;;;;18.27;10.27;;;;;;;4.14;71.10;100280.75;4854440;28;101154;-73
2021/03/17 04:12:12;;;;;;;17.17;11.40;;;;;;;4.16;71.38;100286.81;4855250;28;97910;-73
2021/03/17 04:14:40;;;;;;;17.13;10.33;;;;;;;4.14;71.02;100283.34;4839424;28;97190;-73
2021/03/17 04:17:13;;;;;;;16.03;10.07;;;;;;;3.97;71.27;100285.22;4870812;28;96820;-74
2021/03/17 04:19:41;;;;;;;16.47;10.37;;;;;;;4.07;70.92;100279.97;4854283;28;101633;-73
2021/03/17 04:22:09;;;;;;;16.37;9.27;;;;;;;4.09;71.01;100275.59;4871049;28;97389;-73
2021/03/17 04:24:35;;;;;;;17.43;11.20;;;;;;;4.08;71.33;100279.06;4854960;28;97078;-75
2021/03/17 04:27:02;;;;;;;15.67;9.93;;;;;;;4.12;71.07;100276.44;4872214;28;97350;-73
2021/03/17 04:29:30;;;;;;;16.50;10.40;;;;;;;4.10;71.25;100279.03;4854665;28;101235;-73
2021/03/17 04:31:57;;;;;;;14.47;9.93;;;;;;;4.02;71.37;100279.13;4839514;28;100958;-73
2021/03/17 04:34:23;;;;;;;15.90;10.70;;;;;;;4.07;71.41;100285.16;4870492;28;96817;-77
2021/03/17 04:36:49;;;;;;;18.60;11.27;;;;;;;4.05;71.27;100283.44;4855460;28;96714;-73
2021/03/17 04:39:16;;;;;;;17.37;11.43;;;;;;;4.14;70.80;100288.56;4853775;28;101571;-73
2021/03/17 04:41:42;;;;;;;20.90;13.37;;;;;;;4.14;70.97;100283.34;4873169;28;101344;-73
2021/03/17 04:44:08;;;;;;;16.07;11.67;;;;;;;4.16;71.35;100283.31;4874330;28;96964;-73
2021/03/17 04:46:35;;;;;;;16.83;12.23;;;;;;;4.14;71.39;100283.34;4858016;28;96872;-74
2021/03/17 04:49:01;;;;;;;19.93;12.53;;;;;;;4.11;71.39;100288.56;4890260;28;98063;-73
2021/03/17 04:51:26;;;;;;;17.53;11.77;;;;;;;4.15;71.26;100287.66;4868424;28;98521;-76
2021/03/17 04:53:52;;;;;;;17.13;12.03;;;;;;;4.13;71.24;100284.25;4858633;28;96795;-73
2021/03/17 04:56:18;;;;;;;17.70;12.30;;;;;;;4.21;71.04;100294.56;4853422;28;97135;-73
2021/03/17 04:58:44;;;;;;;18.20;11.73;;;;;;;4.21;70.55;100284.16;4841158;28;101653;-73
2021/03/17 05:01:12;;;;;;;16.57;12.37;;;;;;;4.08;71.13;100288.59;4842337;28;99775;-73
2021/03/17 05:03:39;;;;;;;16.20;12.40;;;;;;;4.11;70.90;100292.91;4841935;28;97163;-73
2021/03/17 05:06:05;;;;;;;20.50;11.97;;;;;;;4.15;71.15;100295.47;4858912;28;97020;-75
2021/03/17 05:08:31;;;;;;;17.47;11.90;;;;;;;4.09;70.89;100292.91;4855731;28;97627;-73
2021/03/17 05:10:57;;;;;;;17.07;12.87;;;;;;;4.10;70.74;100294.63;4842072;28;100907;-73
2021/03/17 05:13:23;;;;;;;19.73;13.67;;;;;;;4.11;71.19;100298.13;4857303;28;96872;-77
2021/03/17 05:15:50;;;;;;;16.40;11.50;;;;;;;4.14;71.25;100293.75;4841932;28;96886;-73
2021/03/17 05:18:17;;;;;;;18.03;12.10;;;;;;;4.14;71.03;100292.88;4857865;28;101383;-73
2021/03/17 05:20:46;;;;;;;17.07;12.73;;;;;;;4.08;71.08;100291.19;4856983;28;100955;-73
2021/03/17 05:23:14;;;;;;;16.80;11.87;;;;;;;4.05;71.08;100296.44;4858024;28;96815;-73
2021/03/17 05:25:40;;;;;;;17.93;12.17;;;;;;;4.14;71.45;100300.69;4851051;28;97310;-73
2021/03/17 05:28:06;;;;;;;17.43;12.30;;;;;;;4.23;70.72;100309.25;4892783;28;98136;-74
2021/03/17 05:30:34;;;;;;;18.00;11.47;;;;;;;4.25;70.68;100304.91;4891712;28;100825;-73
2021/03/17 05:33:00;;;;;;;17.00;12.07;;;;;;;4.23;70.71;100300.59;4861080;28;97085;-73
2021/03/17 05:35:26;;;;;;;16.73;11.77;;;;;;;4.25;70.63;100298.88;4860289;28;97311;-78
2021/03/17 05:37:52;;;;;;;17.20;12.33;;;;;;;4.16;71.09;100305.00;4872694;28;101639;-73
2021/03/17 05:40:18;;;;;;;16.73;11.93;;;;;;;4.12;71.41;100299.81;4877297;28;97580;-73
2021/03/17 05:42:45;;;;;;;19.53;12.73;;;;;;;4.20;70.69;100298.88;4854950;28;96737;-73
2021/03/17 05:45:16;;;;;;;19.50;12.30;;;;;;;4.14;71.13;100305.88;4837685;28;96881;-73
2021/03/17 05:47:47;;;;;;;16.45;12.27;;;;;;;4.15;71.23;100307.59;4835625;28;101394;-73
2021/03/17 05:50:14;;;;;;;19.13;12.00;;;;;;;4.23;71.24;100308.41;4874765;28;98105;-74
2021/03/17 05:52:41;;;;;;;19.67;12.70;;;;;;;4.14;70.80;100317.13;4854124;28;98071;-73
2021/03/17 05:55:08;;;;;;;20.67;13.13;;;;;;;4.08;71.48;100317.19;4852507;28;97244;-73
2021/03/17 05:57:34;;;;;;;20.53;12.67;;;;;;;4.13;71.58;100312.81;4857387;28;97977;-75
2021/03/17 06:00:00;;;;;;;20.47;13.23;;;;;;;4.19;71.29;100312.78;4855673;28;101199;-73
2021/03/17 06:02:26;;;;;;;24.03;13.60;;;;;;;4.25;71.28;100317.91;4834819;28;96683;-80
2021/03/17 06:04:52;;;;;;;18.30;13.10;;;;;;;4.22;71.41;100317.94;4842191;28;96949;-73
2021/03/17 06:07:23;;;;;;;21.07;12.97;;;;;;;4.29;71.28;100324.78;4873619;28;101627;-73
2021/03/17 06:09:50;;;;;;;21.05;13.18;;;;;;;4.26;71.44;100330.03;4840918;28;101311;-73
2021/03/17 06:12:15;;;;;;;22.90;13.60;;;;;;;4.32;71.21;100329.09;4856374;28;97034;-73
2021/03/17 06:14:43;;;;;;;22.33;13.97;;;;;;;4.28;71.42;100332.63;4853315;28;97076;-73
2021/03/17 06:17:13;;;;;;;21.23;14.17;;;;;;;4.17;71.52;100337.03;4855876;28;97791;-73
2021/03/17 06:19:42;;;;;;;18.53;12.50;;;;;;;4.20;71.52;100337.00;4855635;28;101075;-73
2021/03/17 06:22:08;;;;;;;17.03;12.67;;;;;;;4.20;71.20;100337.88;4848840;28;96858;-74
2021/03/17 06:24:35;;;;;;;17.60;12.93;;;;;;;4.25;71.26;100336.09;4854628;28;96915;-74
2021/03/17 06:27:02;;;;;;;21.20;14.17;;;;;;;4.27;71.46;100346.47;4855566;28;102016;-74
2021/03/17 06:29:28;;;;;;;20.93;13.63;;;;;;;4.34;71.28;100342.97;4880936;28;101315;-77
2021/03/17 06:31:53;;;;;;;20.17;13.73;;;;;;;4.37;71.13;100347.28;4856861;28;96914;-73
2021/03/17 06:34:19;;;;;;;23.67;14.20;;;;;;;4.35;71.44;100346.41;4864865;28;97310;-74
2021/03/17 06:36:53;;;;;;;25.13;15.20;;;;;;;4.33;71.58;100354.22;4855692;28;101656;-73
2021/03/17 06:39:19;;;;;;;19.80;13.23;;;;;;;4.36;71.14;100353.31;4854081;28;97447;-74
2021/03/17 06:41:51;;;;;;;28.23;15.90;;;;;;;4.32;71.49;100357.69;4852226;28;97327;-73
2021/03/17 06:44:24;;;;;;;26.85;15.80;;;;;;;4.43;71.28;100362.81;4855732;28;96697;-73
2021/03/17 06:47:19;;;;;;;21.63;13.90;;;;;;;4.49;70.96;100355.81;4853171;28;100410;-73
2021/03/17 06:49:54;;;;;;;24.73;13.90;;;;;;;4.50;71.38;100364.47;4857818;28;99676;-74
2021/03/17 06:52:34;;;;;;;22.27;15.20;;;;;;;4.49;71.46;100361.03;4852208;28;97370;-73
2021/03/17 06:55:16;;;;;;;24.20;17.03;;;;;;;4.49;71.37;100363.63;4855111;28;97310;-73
2021/03/17 06:57:46;;;;;;;28.88;18.70;;;;;;;4.45;71.55;100368.84;4855001;28;101183;-73
2021/03/17 07:00:23;;;;;;;21.73;16.83;;;;;;;4.48;71.37;100367.09;4856424;28;99692;-74
2021/03/17 07:02:50;;;;;;;21.57;14.57;;;;;;;4.36;72.24;100366.31;4836618;28;97075;-74
2021/03/17 07:05:16;;;;;;;24.83;15.03;;;;;;;4.40;71.77;100368.91;4857407;28;97430;-73
2021/03/17 07:07:46;;;;;;;24.00;15.23;;;;;;;4.45;71.73;100361.94;4853625;28;100788;-75
2021/03/17 07:10:12;;;;;;;21.00;14.60;;;;;;;4.61;71.26;100373.06;4855542;28;97451;-79
2021/03/17 07:12:38;;;;;;;20.13;13.67;;;;;;;4.61;71.36;100370.44;4854760;28;96958;-79
2021/03/17 07:15:10;;;;;;;22.90;13.70;;;;;;;4.64;71.02;100374.75;4875394;28;98217;-80
2021/03/17 07:17:36;;;;;;;25.73;13.77;;;;;;;4.72;71.03;100373.81;4865652;28;101343;-78
2021/03/17 07:20:06;;;;;;;20.10;14.03;;;;;;;4.73;71.02;100372.06;4855129;28;101153;-78
2021/03/17 07:22:32;;;;;;;20.13;14.07;;;;;;;4.66;71.15;100380.81;4881606;28;96853;-78
2021/03/17 07:25:03;;;;;;;22.50;14.70;;;;;;;4.60;71.70;100379.13;4891051;28;96901;-77
2021/03/17 07:27:31;;;;;;;22.63;14.30;;;;;;;4.67;71.44;100382.53;4863788;28;97732;-78
2021/03/17 07:30:00;;;;;;;22.07;13.87;;;;;;;4.64;71.51;100380.81;4855669;28;101474;-77
2021/03/17 07:32:26;;;;;;;23.23;14.33;;;;;;;4.59;71.37;100389.53;4883370;28;97087;-78
2021/03/17 07:34:52;;;;;;;18.90;13.80;;;;;;;4.61;72.00;100390.41;4875497;28;96713;-78
2021/03/17 07:37:24;;;;;;;18.97;12.33;;;;;;;4.63;71.60;100399.06;4854992;28;101121;-78
2021/03/17 07:39:50;;;;;;;15.93;10.67;;;;;;;4.65;71.80;100392.06;4868739;28;98153;-79
2021/03/17 07:42:20;;;;;;;18.03;12.23;;;;;;;4.58;71.58;100391.28;4854212;28;96798;-80
2021/03/17 07:44:46;;;;;;;16.57;10.47;;;;;;;4.61;71.80;100390.41;4874944;28;97034;-78
2021/03/17 07:47:12;;;;;;;18.67;10.57;;;;;;;4.62;71.48;100392.09;4889326;28;97289;-78
2021/03/17 07:49:43;;;;;;;16.97;11.10;;;;;;;4.67;71.70;100393.78;4853763;28;98524;-78
2021/03/17 07:52:17;;;;;;;18.83;10.97;;;;;;;4.61;71.61;100399.06;4868762;28;97309;-78
2021/03/17 07:54:49;;;;;;;15.90;10.00;;;;;;;4.60;71.77;100393.88;4869270;28;96837;-75
2021/03/17 07:57:15;;;;;;;17.50;10.05;;;;;;;4.58;71.59;100393.88;4853865;28;98697;-74
2021/03/17 07:59:41;;;;;;;13.93;9.13;;;;;;;4.65;71.53;100399.88;4868595;28;98169;-74
2021/03/17 08:02:08;;;;;;;15.97;9.93;;;;;;;4.54;72.06;100397.41;4869179;28;97341;-74
2021/03/17 08:04:33;;;;;;;14.50;9.50;;;;;;;4.53;71.91;100406.03;4868998;28;96868;-75
2021/03/17 08:07:00;;;;;;;14.67;9.83;;;;;;;4.52;71.92;100402.59;4855206;28;99065;-77
2021/03/17 08:09:26;;;;;;;15.87;10.10;;;;;;;4.59;72.00;100400.78;4856201;28;102420;-74
2021/03/17 08:11:54;;;;;;;17.00;9.97;;;;;;;4.64;71.72;100405.97;4870896;28;97227;-77
2021/03/17 08:14:20;;;;;;;19.97;10.07;;;;;;;4.65;72.23;100408.53;4884678;28;96852;-76
2021/03/17 08:16:46;;;;;;;19.20;10.57;;;;;;;4.70;71.77;100413.72;4846897;28;98508;-75
2021/03/17 08:19:26;;;;;;;17.67;10.23;;;;;;;4.75;71.54;100409.34;4854191;28;98646;-75
2021/03/17 08:22:06;;;;;;;17.10;10.67;;;;;;;4.76;71.79;100408.47;4869181;28;97304;-74
2021/03/17 08:24:41;;;;;;;20.00;10.50;;;;;;;4.87;71.64;100411.81;4857544;28;96824;-75
2021/03/17 08:27:06;;;;;;;17.47;11.13;;;;;;;4.90;71.69;100406.59;4885144;28;98476;-76
2021/03/17 08:29:39;;;;;;;19.20;10.83;;;;;;;4.85;71.05;100415.31;4872413;28;97642;-77
2021/03/17 08:32:07;;;;;;;19.07;12.43;;;;;;;4.87;71.26;100416.16;4860687;28;98682;-77
2021/03/17 08:34:34;;;;;;;24.77;13.23;;;;;;;4.93;71.46;100419.56;4840585;28;97705;-75
2021/03/17 08:37:07;;;;;;;20.67;12.60;;;;;;;4.96;70.79;100416.09;4855498;28;97429;-76
2021/03/17 08:39:32;;;;;;;20.77;12.57;;;;;;;4.87;71.18;100424.84;4881499;28;98099;-75
2021/03/17 08:42:00;;;;;;;23.17;12.73;;;;;;;4.92;71.08;100427.41;4870914;28;97416;-79
2021/03/17 08:44:30;;;;;;;22.17;13.43;;;;;;;4.91;71.02;100421.31;4875428;28;97296;-79
2021/03/17 08:47:27;;;;;;;20.10;12.27;;;;;;;4.96;70.89;100421.28;4875906;28;98240;-80
2021/03/17 08:49:54;;;;;;;26.40;14.57;;;;;;;4.95;70.85;100425.63;4847498;28;101537;-78
2021/03/17 08:52:37;;;;;;;25.60;14.20;;;;;;;4.98;70.71;100425.59;4871443;28;96729;-81
2021/03/17 08:55:07;;;;;;;21.90;13.40;;;;;;;4.97;70.85;100428.19;4873364;28;96697;-80
2021/03/17 08:57:52;;;;;;;19.70;13.10;;;;;;;5.05;70.41;100426.41;4870542;28;98232;-80
2021/03/17 09:00:40;;;;;;;17.50;11.70;;;;;;;4.97;70.47;100429.09;4855310;28;101643;-86
2021/03/17 09:03:05;;;;;;;20.20;11.53;;;;;;;5.01;70.66;100435.13;4871840;28;96931;-83
2021/03/17 09:05:32;;;;;;;19.53;11.27;;;;;;;5.06;70.32;100430.75;4873018;28;97416;-75
2021/03/17 09:08:07;;;;;;;20.47;11.57;;;;;;;5.04;70.47;100434.22;4850271;28;97708;-74
2021/03/17 09:10:47;;;;;;;19.50;12.37;;;;;;;5.05;70.13;100425.53;4854057;28;101640;-77
2021/03/17 09:13:15;;;;;;;18.13;12.27;;;;;;;5.14;70.53;100430.66;4863827;28;96963;-75
2021/03/17 09:15:47;;;;;;;24.80;13.47;;;;;;;5.18;70.14;100430.63;4858542;28;97520;-75
2021/03/17 09:18:13;;;;;;;22.95;13.40;;;;;;;5.09;70.44;100435.03;4855633;28;98459;-75
2021/03/17 09:20:39;;;;;;;20.07;13.77;;;;;;;5.09;70.30;100442.84;4866941;28;101268;-74
2021/03/17 09:23:15;;;;;;;17.97;12.20;;;;;;;5.14;70.01;100435.84;4870993;28;96882;-77
2021/03/17 09:25:46;;;;;;;22.57;13.37;;;;;;;5.18;70.14;100445.38;4845485;28;97354;-75
2021/03/17 09:28:34;;;;;;;26.23;16.07;;;;;;;5.14;70.07;100441.91;4868023;28;101364;-77
2021/03/17 09:31:01;;;;;;;26.80;16.03;;;;;;;5.25;69.90;100438.34;4874892;28;98163;-76
2021/03/17 09:33:39;;;;;;;23.70;15.77;;;;;;;5.28;69.34;100446.13;4843312;28;97589;-76
2021/03/17 09:36:11;;;;;;;21.87;14.30;;;;;;;5.22;69.73;100440.09;4865588;28;96810;-78
2021/03/17 09:38:42;;;;;;;21.47;14.13;;;;;;;5.22;69.61;100445.31;4852183;28;98386;-75
2021/03/17 09:41:12;;;;;;;24.87;14.73;;;;;;;5.24;69.82;100445.31;4870265;28;101653;-76
2021/03/17 09:43:43;;;;;;;24.33;16.00;;;;;;;5.30;69.74;100444.38;4854328;28;96773;-75
2021/03/17 09:46:23;;;;;;;24.50;15.57;;;;;;;5.34;69.62;100446.91;4839715;28;98488;-75
2021/03/17 09:48:50;;;;;;;26.90;17.20;;;;;;;5.33;70.18;100439.16;4862573;28;98564;-75
2021/03/17 09:51:18;;;;;;;25.80;17.27;;;;;;;5.48;69.59;100444.19;4870412;28;97474;-75
2021/03/17 09:53:45;;;;;;;26.57;16.67;;;;;;;5.48;69.63;100449.38;4861755;28;98044;-75
2021/03/17 09:56:11;;;;;;;25.83;16.70;;;;;;;5.55;69.66;100444.97;4870933;28;97644;-75
2021/03/17 09:58:38;;;;;;;27.57;16.60;;;;;;;5.62;69.18;100439.66;4870234;28;97976;-75
2021/03/17 10:01:13;;;;;;;25.10;16.30;;;;;;;5.58;69.35;100437.97;4838706;28;99603;-76
2021/03/17 10:03:46;;;;;;;24.63;16.47;;;;;;;5.58;69.11;100448.38;4870766;28;96863;-75
2021/03/17 10:06:12;;;;;;;27.00;17.87;;;;;;;5.50;69.37;100449.34;4870518;28;96921;-76
2021/03/17 10:08:37;;;;;;;33.20;17.60;;;;;;;5.59;69.60;100449.28;4860494;28;98171;-76
2021/03/17 10:11:03;;;;;;;26.10;16.97;;;;;;;5.62;69.22;100451.84;4865894;28;98368;-81
2021/03/17 10:13:38;;;;;;;29.30;18.97;;;;;;;5.47;69.76;100452.88;4851933;28;97386;-76
2021/03/17 10:16:04;;;;;;;28.07;17.83;;;;;;;5.54;69.56;100456.25;4847222;28;96883;-77
2021/03/17 10:18:30;;;;;;;35.77;19.23;;;;;;;5.56;69.32;100449.31;4844771;29;101762;-76
2021/03/17 10:20:56;;;;;;;25.97;18.03;;;;;;;5.60;69.24;100451.84;4862354;28;98143;-76
2021/03/17 10:23:22;;;;;;;31.43;18.20;;;;;;;5.67;69.09;100455.22;4854810;28;96812;-76
2021/03/17 10:25:48;;;;;;;29.50;20.10;;;;;;;5.73;68.96;100454.28;4828074;28;97444;-78
2021/03/17 10:28:13;;;;;;;29.13;21.03;;;;;;;5.76;69.02;100454.25;4876153;28;99341;-76
2021/03/17 10:30:42;;;;;;;38.77;25.30;;;;;;;5.78;69.02;100460.31;4866543;28;100835;-76
2021/03/17 10:33:12;;;;;;;48.00;28.43;;;;;;;5.86;67.92;100463.69;4853263;28;97501;-76
2021/03/17 10:35:38;;;;;;;52.87;32.20;;;;;;;5.95;68.10;100461.00;4858563;28;96838;-76
2021/03/17 10:38:06;;;;;;;62.60;37.27;;;;;;;5.88;68.03;100467.16;4867061;28;98115;-77
2021/03/17 10:40:32;;;;;;;59.77;34.97;;;;;;;5.87;67.49;100481.91;4847129;29;101568;-78
2021/03/17 10:43:09;;;;;;;68.77;37.07;;;;;;;5.76;67.55;100472.50;4867366;28;97481;-76
2021/03/17 10:45:46;;;;;;;60.67;36.27;;;;;;;5.73;67.93;100477.72;4858763;28;98463;-84
2021/03/17 10:48:22;;;;;;;55.13;32.67;;;;;;;5.66;67.34;100472.59;4865623;28;102932;-76
2021/03/17 10:50:48;;;;;;;61.47;33.23;;;;;;;5.63;67.92;100477.00;4850803;28;101285;-76
2021/03/17 10:53:20;;;;;;;56.93;32.97;;;;;;;5.66;67.55;100483.03;4855777;28;97611;-76
2021/03/17 10:55:47;;;;;;;50.73;30.33;;;;;;;5.83;67.06;100475.00;4867597;28;96811;-82
2021/03/17 10:58:16;;;;;;;52.27;31.43;;;;;;;5.96;66.65;100480.94;4869936;28;98085;-76
2021/03/17 11:00:46;;;;;;;51.47;30.63;;;;;;;6.04;66.53;100475.66;4854792;28;101085;-78
2021/03/17 11:03:28;;;;;;;49.73;29.50;;;;;;;5.97;65.96;100472.28;4859097;28;97163;-76
2021/03/17 11:06:16;;;;;;;53.78;30.23;;;;;;;5.91;66.16;100474.94;4869398;28;96910;-77
2021/03/17 11:08:43;;;;;;;46.90;27.60;;;;;;;5.98;65.72;100473.13;4842493;28;101155;-78
2021/03/17 11:11:10;;;;;;;47.63;28.40;;;;;;;5.89;65.65;100476.69;4836619;29;101305;-76
2021/03/17 11:13:49;;;;;;;46.93;27.50;;;;;;;5.93;65.17;100486.19;4853465;28;96859;-82
2021/03/17 11:16:29;;;;;;;47.43;27.93;;;;;;;5.84;65.44;100476.72;4839196;28;97172;-76
2021/03/17 11:18:57;;;;;;;52.73;28.87;;;;;;;5.81;65.42;100481.97;4870012;28;101177;-76
2021/03/17 11:21:29;;;;;;;47.00;28.57;;;;;;;5.75;65.27;100484.66;4874547;28;97305;-76
2021/03/17 11:23:57;;;;;;;47.58;28.05;;;;;;;5.77;65.22;100482.91;4864123;28;97731;-78
2021/03/17 11:26:36;;;;;;;54.37;30.27;;;;;;;5.84;64.51;100492.34;4849657;28;96910;-76
2021/03/17 11:29:13;;;;;;;52.47;28.60;;;;;;;5.77;64.42;100475.09;4862268;28;98493;-78
2021/03/17 11:31:39;;;;;;;51.27;28.23;;;;;;;5.79;63.99;100495.91;4839641;28;100180;-76
2021/03/17 11:34:07;;;;;;;46.83;25.57;;;;;;;5.77;63.91;100493.31;4836466;28;97101;-81